NCAR-RAP Real-Time Weather Data

Output produced by METARs form (17 December 2018  08:10 UTC)
found at http://weather.rap.ucar.edu/surface/
 
Conditions at: KSRQ observed 17 December 2018  07:53 UTC
Temperature: 13.9°C (57°F)
Dewpoint: 11.7°C (53°F) [RH = 87%]
Pressure (altimeter): 30.11 inches Hg (1019.7 mb)
[Sea-level pressure: 1019.6 mb]
Winds: calm
Visibility: 10 or more miles (16+ km)
Ceiling: at least 12,000 feet AGL
Clouds: sky clear below 12,000 feet AGL
Present Weather: automated observation with no human augmentation;
there may or may not be significant weather present at this time
KSRQ 170753Z AUTO 00000KT 10SM CLR 14/12 A3011 RMK AO2 SLP196 T01390117

Conditions at: KSRQ observed 17 December 2018  06:53 UTC
Temperature: 14.4°C (58°F)
Dewpoint: 11.7°C (53°F) [RH = 84%]
Pressure (altimeter): 30.11 inches Hg (1019.7 mb)
[Sea-level pressure: 1019.6 mb]
Winds: from the NNW (330 degrees) at 5 MPH (4 knots; 2.1 m/s)
Visibility: 10 or more miles (16+ km)
Ceiling: at least 12,000 feet AGL
Clouds: sky clear below 12,000 feet AGL
Present Weather: automated observation with no human augmentation;
there may or may not be significant weather present at this time
KSRQ 170653Z AUTO 33004KT 10SM CLR 14/12 A3011 RMK AO2 SLP196 T01440117

Conditions at: KSRQ observed 17 December 2018  05:53 UTC
Temperature: 15.6°C (60°F)
Dewpoint: 12.8°C (55°F) [RH = 83%]
Pressure (altimeter): 30.12 inches Hg (1020.1 mb)
[Sea-level pressure: 1019.7 mb]
Winds: from the NNW (340 degrees) at 6 MPH (5 knots; 2.6 m/s)
Visibility: 10 or more miles (16+ km)
Ceiling: at least 12,000 feet AGL
Clouds: few clouds at 3500 feet AGL
Present Weather: automated observation with no human augmentation;
there may or may not be significant weather present at this time
KSRQ 170553Z AUTO 34005KT 10SM FEW035 16/13 A3012 RMK AO2 SLP197 T01560128 10172 20156 58010

Conditions at: KSRQ observed 17 December 2018  04:53 UTC
Temperature: 16.1°C (61°F)
Dewpoint: 12.8°C (55°F) [RH = 81%]
Pressure (altimeter): 30.13 inches Hg (1020.4 mb)
[Sea-level pressure: 1020.4 mb]
Winds: calm
Visibility: 10 or more miles (16+ km)
Ceiling: 3900 feet AGL
Clouds: broken clouds at 3900 feet AGL
Present Weather: automated observation with no human augmentation;
there may or may not be significant weather present at this time
KSRQ 170453Z AUTO 00000KT 10SM BKN039 16/13 A3013 RMK AO2 SLP204 T01610128 402390144

Conditions at: KSRQ observed 17 December 2018  03:53 UTC
Temperature: 16.7°C (62°F)
Dewpoint: 13.3°C (56°F) [RH = 80%]
Pressure (altimeter): 30.15 inches Hg (1021.1 mb)
[Sea-level pressure: 1020.7 mb]
Winds: from the N (350 degrees) at 6 MPH (5 knots; 2.6 m/s)
Visibility: 10 or more miles (16+ km)
Ceiling: 3700 feet AGL
Clouds: overcast cloud deck at 3700 feet AGL
Present Weather: no significant weather observed at this time
KSRQ 170353Z 35005KT 10SM OVC037 17/13 A3015 RMK AO2 SLP207 T01670133

Conditions at: KSRQ observed 17 December 2018  02:53 UTC
Temperature: 16.7°C (62°F)
Dewpoint: 12.8°C (55°F) [RH = 78%]
Pressure (altimeter): 30.15 inches Hg (1021.1 mb)
[Sea-level pressure: 1020.8 mb]
Winds: from the NNE (20 degrees) at 3 MPH (3 knots; 1.6 m/s)
Visibility: 10 or more miles (16+ km)
Ceiling: 3600 feet AGL
Clouds: overcast cloud deck at 3600 feet AGL
Present Weather: no significant weather observed at this time
KSRQ 170253Z 02003KT 10SM OVC036 17/13 A3015 RMK AO2 SLP208 T01670128 51011

Conditions at: KSRQ observed 17 December 2018  01:53 UTC
Temperature: 17.2°C (63°F)
Dewpoint: 12.8°C (55°F) [RH = 75%]
Pressure (altimeter): 30.14 inches Hg (1020.7 mb)
[Sea-level pressure: 1020.4 mb]
Winds: from the NNE (20 degrees) at 6 MPH (5 knots; 2.6 m/s)
Visibility: 10 or more miles (16+ km)
Ceiling: 3700 feet AGL
Clouds: overcast cloud deck at 3700 feet AGL
Present Weather: no significant weather observed at this time
KSRQ 170153Z 02005KT 10SM OVC037 17/13 A3014 RMK AO2 SLP204 T01720128

Conditions at: KSRQ observed 17 December 2018  00:53 UTC
Temperature: 16.7°C (62°F)
Dewpoint: 13.3°C (56°F) [RH = 80%]
Pressure (altimeter): 30.14 inches Hg (1020.7 mb)
[Sea-level pressure: 1020.6 mb]
Winds: from the NNW (330 degrees) at 6 MPH (5 knots; 2.6 m/s)
Visibility: 10 or more miles (16+ km)
Ceiling: at least 12,000 feet AGL
Clouds: scattered clouds at 3500 feet AGL
Present Weather: no significant weather observed at this time
KSRQ 170053Z 33005KT 10SM SCT035 17/13 A3014 RMK AO2 SLP206 T01670133

Conditions at: KSRQ observed 17 December 2018  00:39 UTC
Temperature: 16.7°C (62°F)
Dewpoint: 12.8°C (55°F) [RH = 78%]
Pressure (altimeter): 30.14 inches Hg (1020.7 mb)
Winds: from the NNW (330 degrees) at 5 MPH (4 knots; 2.1 m/s)
Visibility: 10 or more miles (16+ km)
Ceiling: at least 12,000 feet AGL
Clouds: few clouds at 200 feet AGL
Present Weather: no significant weather observed at this time
KSRQ 170039Z 33004KT 10SM FEW002 17/13 A3014 RMK AO2 T01670128

Conditions at: KSRQ observed 16 December 2018  23:53 UTC
Temperature: 17.2°C (63°F)
Dewpoint: 13.3°C (56°F) [RH = 78%]
Pressure (altimeter): 30.11 inches Hg (1019.7 mb)
[Sea-level pressure: 1019.7 mb]
Winds: from the N (360 degrees) at 5 MPH (4 knots; 2.1 m/s)
Visibility: 10 or more miles (16+ km)
Ceiling: at least 12,000 feet AGL
Clouds: sky clear below 12,000 feet AGL
Present Weather: no significant weather observed at this time
KSRQ 162353Z 36004KT 10SM CLR 17/13 A3011 RMK AO2 SLP197 T01720133 10239 20172 51016

Conditions at: KSRQ observed 16 December 2018  22:53 UTC
Temperature: 18.3°C (65°F)
Dewpoint: 13.3°C (56°F) [RH = 73%]
Pressure (altimeter): 30.10 inches Hg (1019.4 mb)
[Sea-level pressure: 1019.3 mb]
Winds: from the NNW (330 degrees) at 8 MPH (7 knots; 3.6 m/s)
Visibility: 10 or more miles (16+ km)
Ceiling: at least 12,000 feet AGL
Clouds: sky clear below 12,000 feet AGL
Present Weather: no significant weather observed at this time
KSRQ 162253Z 33007KT 10SM CLR 18/13 A3010 RMK AO2 SLP193 T01830133

Conditions at: KSRQ observed 16 December 2018  21:53 UTC
Temperature: 20.6°C (69°F)
Dewpoint: 15.0°C (59°F) [RH = 70%]
Pressure (altimeter): 30.09 inches Hg (1019.0 mb)
[Sea-level pressure: 1018.8 mb]
Winds: from the NNW (340 degrees) at 10 MPH (9 knots; 4.7 m/s)
Visibility: 10 or more miles (16+ km)
Ceiling: at least 12,000 feet AGL
Clouds: sky clear below 12,000 feet AGL
Present Weather: no significant weather observed at this time
KSRQ 162153Z 34009KT 10SM CLR 21/15 A3009 RMK AO2 SLP188 T02060150

Conditions at: KSRQ observed 16 December 2018  20:53 UTC
Temperature: 22.8°C (73°F)
Dewpoint: 15.0°C (59°F) [RH = 61%]
Pressure (altimeter): 30.07 inches Hg (1018.4 mb)
[Sea-level pressure: 1018.1 mb]
Winds: from the NNW (340 degrees) at 10 MPH (9 knots; 4.7 m/s)
Visibility: 10 or more miles (16+ km)
Ceiling: at least 12,000 feet AGL
Clouds: few clouds at 2800 feet AGL
Present Weather: no significant weather observed at this time
KSRQ 162053Z 34009KT 10SM FEW028 23/15 A3007 RMK AO2 SLP181 T02280150 55005

Conditions at: KSRQ observed 16 December 2018  19:53 UTC
Temperature: 23.3°C (74°F)
Dewpoint: 15.6°C (60°F) [RH = 62%]
Pressure (altimeter): 30.05 inches Hg (1017.7 mb)
[Sea-level pressure: 1017.6 mb]
Winds: from the N (350 degrees) at 10 MPH (9 knots; 4.7 m/s)
Visibility: 10 or more miles (16+ km)
Ceiling: at least 12,000 feet AGL
Clouds: scattered clouds at 2100 feet AGL
Present Weather: no significant weather observed at this time
KSRQ 161953Z 35009KT 10SM SCT021 23/16 A3005 RMK AO2 SLP176 T02330156

Conditions at: KSRQ observed 16 December 2018  18:53 UTC
Temperature: 22.8°C (73°F)
Dewpoint: 16.7°C (62°F) [RH = 68%]
Pressure (altimeter): 30.06 inches Hg (1018.0 mb)
[Sea-level pressure: 1017.8 mb]
Winds: from the NNW (330 degrees) at 7 MPH (6 knots; 3.1 m/s)
Visibility: 10 or more miles (16+ km)
Ceiling: at least 12,000 feet AGL
Clouds: scattered clouds at 2100 feet AGL
Present Weather: no significant weather observed at this time
KSRQ 161853Z COR 33006KT 10SM SCT021 23/17 A3006 RMK AO2 SLP178 T02280167

Conditions at: KSRQ observed 16 December 2018  17:53 UTC
Temperature: 23.3°C (74°F)
Dewpoint: 17.2°C (63°F) [RH = 69%]
Pressure (altimeter): 30.08 inches Hg (1018.7 mb)
[Sea-level pressure: 1018.6 mb]
Winds: from the W (280 degrees) at 12 MPH (10 knots; 5.2 m/s)
Visibility: 10 or more miles (16+ km)
Ceiling: at least 12,000 feet AGL
Clouds: scattered clouds at 5000 feet AGL
Present Weather: no significant weather observed at this time
KSRQ 161753Z 28010KT 10SM SCT050 23/17 A3008 RMK AO2 SLP186 T02330172 10233 20144 58020

Conditions at: KSRQ observed 16 December 2018  16:53 UTC
Temperature: 22.2°C (72°F)
Dewpoint: 17.2°C (63°F) [RH = 73%]
Pressure (altimeter): 30.11 inches Hg (1019.7 mb)
[Sea-level pressure: 1019.5 mb]
Winds: from the WSW (250 degrees) at 7 MPH (6 knots; 3.1 m/s)
Visibility: 10 or more miles (16+ km)
Ceiling: at least 12,000 feet AGL
Clouds: sky clear below 12,000 feet AGL
Present Weather: no significant weather observed at this time
KSRQ 161653Z 25006KT 10SM CLR 22/17 A3011 RMK AO2 SLP195 T02220172

Conditions at: KSRQ observed 16 December 2018  15:53 UTC
Temperature: 22.2°C (72°F)
Dewpoint: 16.7°C (62°F) [RH = 71%]
Pressure (altimeter): 30.13 inches Hg (1020.4 mb)
[Sea-level pressure: 1020.2 mb]
Winds: from the W (270 degrees) at 7 MPH (6 knots; 3.1 m/s)
Visibility: 10 or more miles (16+ km)
Ceiling: at least 12,000 feet AGL
Clouds: sky clear below 12,000 feet AGL
Present Weather: no significant weather observed at this time
KSRQ 161553Z 27006KT 10SM CLR 22/17 A3013 RMK AO2 SLP202 T02220167

Conditions at: KSRQ observed 16 December 2018  14:53 UTC
Temperature: 21.7°C (71°F)
Dewpoint: 17.2°C (63°F) [RH = 76%]
Pressure (altimeter): 30.14 inches Hg (1020.7 mb)
[Sea-level pressure: 1020.6 mb]
Winds: calm
Visibility: 10 or more miles (16+ km)
Ceiling: 6000 feet AGL
Clouds: broken clouds at 6000 feet AGL
Present Weather: no significant weather observed at this time
KSRQ 161453Z 00000KT 10SM BKN060 22/17 A3014 RMK AO2 SLP206 T02170172 51013

Conditions at: KSRQ observed 16 December 2018  13:53 UTC
Temperature: 18.3°C (65°F)
Dewpoint: 17.2°C (63°F) [RH = 93%]
Pressure (altimeter): 30.13 inches Hg (1020.4 mb)
[Sea-level pressure: 1020.1 mb]
Winds: from the SE (130 degrees) at 3 MPH (3 knots; 1.6 m/s)
Visibility: 10 or more miles (16+ km)
Ceiling: 6000 feet AGL
Clouds: broken clouds at 6000 feet AGL
Present Weather: no significant weather observed at this time
KSRQ 161353Z 13003KT 10SM BKN060 18/17 A3013 RMK AO2 SLP201 T01830172

Conditions at: KSRQ observed 16 December 2018  12:53 UTC
Temperature: 15.6°C (60°F)
Dewpoint: 15.0°C (59°F) [RH = 96%]
Pressure (altimeter): 30.12 inches Hg (1020.1 mb)
[Sea-level pressure: 1020.0 mb]
Winds: from the SE (140 degrees) at 3 MPH (3 knots; 1.6 m/s)
Visibility: 10 or more miles (16+ km)
Ceiling: at least 12,000 feet AGL
Clouds: few clouds at 6500 feet AGL
Present Weather: no significant weather observed at this time
KSRQ 161253Z 14003KT 10SM FEW065 16/15 A3012 RMK AO2 SLP200 T01560150

Conditions at: KSRQ observed 16 December 2018  12:09 UTC
Temperature: 15.0°C (59°F)
Dewpoint: 14.4°C (58°F) [RH = 96%]
Pressure (altimeter): 30.11 inches Hg (1019.7 mb)
Winds: calm
Visibility: 10 or more miles (16+ km)
Ceiling: at least 12,000 feet AGL
Clouds: few clouds at 500 feet AGL
Present Weather: no significant weather observed at this time
KSRQ 161209Z 00000KT 10SM FEW005 15/14 A3011 RMK AO2 T01500144

Conditions at: KSRQ observed 16 December 2018  11:53 UTC
Temperature: 15.6°C (60°F)
Dewpoint: 15.6°C (60°F) [RH = 100%]
Pressure (altimeter): 30.10 inches Hg (1019.4 mb)
[Sea-level pressure: 1019.3 mb]
Winds: calm
Visibility: 10 or more miles (16+ km)
Ceiling: at least 12,000 feet AGL
Clouds: few clouds at 7000 feet AGL
Present Weather: no significant weather observed at this time
KSRQ 161153Z COR 00000KT 10SM FEW070 16/16 A3010 RMK AO2 SLP193 70010 T01560156 10183 20150 53012

Conditions at: KSRQ observed 16 December 2018  10:53 UTC
Temperature: 15.6°C (60°F)
Dewpoint: 15.6°C (60°F) [RH = 100%]
Pressure (altimeter): 30.09 inches Hg (1019.0 mb)
[Sea-level pressure: 1018.8 mb]
Winds: calm
Visibility: 7 miles (11 km)
Ceiling: 6500 feet AGL
Clouds: scattered clouds at 5000 feet AGL
broken clouds at 6500 feet AGL
Present Weather: no significant weather observed at this time
KSRQ 161053Z 00000KT 7SM SCT050 BKN065 16/16 A3009 RMK AO2 SLP188 T01560156

Conditions at: KSRQ observed 16 December 2018  10:41 UTC
Temperature: 16.1°C (61°F)
Dewpoint: 15.6°C (60°F) [RH = 97%]
Pressure (altimeter): 30.08 inches Hg (1018.7 mb)
Winds: from the E (100 degrees) at 3 MPH (3 knots; 1.6 m/s)
Visibility: 3 miles (5 km)
Ceiling: 6500 feet AGL
Clouds: few clouds at 200 feet AGL
broken clouds at 6500 feet AGL
Present Weather: BR  (mist)
KSRQ 161041Z AUTO 10003KT 3SM BR FEW002 BKN065 16/16 A3008 RMK AO2 T01610156

Conditions at: KSRQ observed 16 December 2018  10:37 UTC
Temperature: 15.6°C (60°F)
Dewpoint: 15.6°C (60°F) [RH = 100%]
Pressure (altimeter): 30.08 inches Hg (1018.7 mb)
Winds: from the ESE (110 degrees) at 3 MPH (3 knots; 1.6 m/s)
Visibility: 1.00 miles (1.61 km)
Ceiling: 6500 feet AGL
Clouds: few clouds at 200 feet AGL
broken clouds at 6500 feet AGL
Present Weather: BR  (mist)
KSRQ 161037Z AUTO 11003KT 1SM BR FEW002 BKN065 16/16 A3008 RMK AO2 T01560156

Conditions at: KSRQ observed 16 December 2018  10:13 UTC
Temperature: 15.0°C (59°F)
Dewpoint: 14.4°C (58°F) [RH = 96%]
Pressure (altimeter): 30.08 inches Hg (1018.7 mb)
Winds: calm
Visibility: 0.25 miles (0.40 km)
Ceiling: indefinite ceiling with vertical visibility of 200 feet AGL
Clouds: obscured sky
Present Weather: FG  (fog)
KSRQ 161013Z AUTO 00000KT 1/4SM FG VV002 15/14 A3008 RMK AO2 T01500144

Conditions at: KSRQ observed 16 December 2018  10:01 UTC
Temperature: 16.1°C (61°F)
Dewpoint: 15.6°C (60°F) [RH = 97%]
Pressure (altimeter): 30.07 inches Hg (1018.4 mb)
Winds: calm
Visibility: 0.50 miles (0.80 km)
Ceiling: at least 12,000 feet AGL
Clouds: sky clear below 12,000 feet AGL
Present Weather: FG  (fog)
KSRQ 161001Z AUTO 00000KT 1/2SM FG CLR 16/16 A3007 RMK AO2 T01610156

Conditions at: KSRQ observed 16 December 2018  09:53 UTC
Temperature: 16.1°C (61°F)
Dewpoint: 15.6°C (60°F) [RH = 97%]
Pressure (altimeter): 30.07 inches Hg (1018.4 mb)
[Sea-level pressure: 1018.2 mb]
Winds: calm
Visibility: 1.50 miles (2.41 km)
Ceiling: at least 12,000 feet AGL
Clouds: sky clear below 12,000 feet AGL
Present Weather: BR  (mist)
KSRQ 160953Z AUTO 00000KT 1 1/2SM BR CLR 16/16 A3007 RMK AO2 SLP182 T01610156

Conditions at: KSRQ observed 16 December 2018  08:53 UTC
Temperature: 18.3°C (65°F)
Dewpoint: 17.2°C (63°F) [RH = 93%]
Pressure (altimeter): 30.07 inches Hg (1018.4 mb)
[Sea-level pressure: 1018.1 mb]
Winds: calm
Visibility: 10 or more miles (16+ km)
Ceiling: 6000 feet AGL
Clouds: few clouds at 3500 feet AGL
overcast cloud deck at 6000 feet AGL
Present Weather: automated observation with no human augmentation;
there may or may not be significant weather present at this time
KSRQ 160853Z AUTO 00000KT 10SM FEW035 OVC060 18/17 A3007 RMK AO2 SLP181 T01830172 55000